KLAMKAXX

Guest
Details From KLAM - LOS ALAMOS
To KAXX - ANGEL FIRE
Flight Number -
Tags generated
Created
Modified
Stats Distance 58 nm / 107 km
Max Altitude 5,800 ft / 1,768 m
Waypoints 3
Social Downloads 0
Likes 0
Share VATSIM

Download

Looking for another format? Having issues loading an existing format? Contact us
Advertisement - Login to hide

Notes

Basic altitude profile: - Ascent Rate: 1500ft/min - Ascent Speed: 140kts - Cruise Altitude: 17000ft - Cruise Speed: 155kts - Descent Rate: 1000ft/min - Descent Speed: 150kts Options: - Use NATs: yes - Use PACOTS: yes - Use low airways: yes - Use high airways: yes

Route

KLAM ZEDAN KAXX

ID Type Via Altitude Latitude Longitude Leg Dist Tot Dist Heading (true) Name
O KLAM APT - 0 ft / 0 m 35.87981˚ -106.26941˚ - 0 nm - LOS ALAMOS
ZEDAN FIX - 5,800 ft / 1,768 m 36.03771˚ -105.99163˚ 16 nm 16 nm 55° / 55° -
O KAXX APT - 0 ft / 0 m 36.42200˚ -105.28990˚ 41 nm 57 nm 56° / 56° ANGEL FIRE

Altitude Profile

Advertisement - Login to hide

KLAM

Details ICAO KLAM (LAM)
Name LOS ALAMOS
Region United States
Timezone America/Denver (UTC-6.0)
Stats Elevation 7,171 ft / 2,186 m (AMSL)
Location 35.879808° -106.269413°
Runways 1
Magnetic Variation 8.427° E

METAR

KLAM 220855Z AUTO 23006KT 10SM SCT060 09/05 A3014 RMK AO2 T00930047

Decode

TAF

Not found

Departure Runways

ID Width Length Bearing (true) Bearing (mag) Surface Threshold Offset Overrun Length
09 113 ft / 34 m 5,538 ft / 1,688 m 102.45° 94.02° Asphalt 0 ft / 0 m 0 ft / 0 m
27 113 ft / 34 m 5,538 ft / 1,688 m 282.46° 274.03° Asphalt 0 ft / 0 m 0 ft / 0 m

KAXX

Details ICAO KAXX
Name ANGEL FIRE
Region United States
Timezone America/Denver (UTC-6.0)
Stats Elevation 8,380 ft / 2,554 m (AMSL)
Location 36.422000° -105.289905°
Runways 1
Magnetic Variation 8.025° E

METAR

KAXX 220855Z AUTO 00000KT 1/2SM FG OVC002 03/03 A3021 RMK AO2 60001 T00280025

Decode

TAF

Not found

Destination Runways

ID Width Length Bearing (true) Bearing (mag) Surface Threshold Offset Overrun Length
17 100 ft / 30 m 8,918 ft / 2,718 m 181.75° 173.72° Asphalt 0 ft / 0 m 0 ft / 0 m
35 100 ft / 30 m 8,918 ft / 2,718 m 1.74° 353.71° Asphalt 0 ft / 0 m 0 ft / 0 m

Popular Alternatives